• Join FlightAware (Why Join?)
  • Login
  • US Flag 
09:23AM EDT


 

Airport Tracker/Info


-or-


 

Live Flight TrackerFlight Track Log ✈ SWA494 ✈ 10-Apr-2013 ✈ KBUR - KSJC

Flight Track Log - Related Links

Times and Time Zones

All times are in EDT time to prevent confusion due to time zone crossing. See the SWA494 flight status page for this flight to view local times or setup timezone preferences in your user account.

Time Position Orientation Groundspeed Altitude Reporting Facility
EDT Latitude Longitude Course Direction KTS MPH feet Rate Location/Type
11:36AM 34.1772 -118.3647 236° Southwest 162 186 2,100  Level Los Angeles Center
11:36AM 34.1667 -118.3833 236° Southwest 200 230 3,700 3,180 Climbing Southern California TRACON
11:38AM 34.2289 -118.4617 314° West 249 287 8,700 3,300 Climbing Los Angeles Center
11:39AM 34.2950 -118.5061 331° Northwest 270 311 12,600 4,080 Climbing Los Angeles Center
11:40AM 34.3750 -118.5622 330° Northwest 327 376 17,200 4,200 Climbing Los Angeles Center
11:41AM 34.4711 -118.6278 331° Northwest 333 383 21,400 3,480 Climbing Los Angeles Center
11:42AM 34.5569 -118.6897 329° Northwest 356 410 24,400 2,700 Climbing Los Angeles Center
11:44AM 34.7411 -118.8189 330° Northwest 385 443 29,800 2,460 Climbing Los Angeles Center
11:45AM 34.8372 -118.8892 329° Northwest 399 459 32,100 2,280 Climbing Los Angeles Center
11:46AM 34.9481 -118.9825 325° Northwest 406 467 34,600 1,860 Climbing Los Angeles Center
11:47AM 35.0239 -119.0861 312° West 414 476 36,000 660 Climbing Los Angeles Center
11:48AM 35.0831 -119.2025 302° West 409 471 36,000  Level Los Angeles Center
11:49AM 35.1425 -119.3197 302° West 408 470 36,000  Level Los Angeles Center
11:50AM 35.2031 -119.4358 303° West 406 467 36,000  Level Los Angeles Center
11:51AM 35.2597 -119.5519 301° West 401 461 36,000  Level Los Angeles Center
11:52AM 35.3322 -119.6928 302° West 411 473 36,000  Level Los Angeles Center
11:53AM 35.3900 -119.8069 302° West 402 463 36,000  Level Los Angeles Center
11:54AM 35.4247 -119.8758 302° West 404 465 36,000  Level Oakland Center
11:55AM 35.4836 -119.9931 302° West 407 468 36,000  Level Oakland Center
11:56AM 35.5411 -120.1103 301° West 405 466 36,000  Level Oakland Center
11:57AM 35.5994 -120.2275 301° West 407 468 36,000  Level Oakland Center
11:58AM 35.6567 -120.3456 301° West 406 467 36,000  Level Oakland Center
11:59AM 35.7186 -120.4600 304° West 406 467 36,000  Level Oakland Center
12:00PM 35.8136 -120.5789 315° West 406 467 36,000  Level Oakland Center
12:01PM 35.8917 -120.6797 314° West 407 468 36,000 -240 Level Oakland Center
12:02PM 35.9703 -120.7806 314° West 408 470 35,600 -1,680 Descending Oakland Center
12:03PM 36.0494 -120.8825 314° West 410 472 32,600 -2,700 Descending Oakland Center
12:04PM 36.1278 -120.9847 314° West 410 472 30,100 -2,400 Descending Oakland Center
12:05PM 36.2008 -121.0819 313° West 389 448 27,800 -2,220 Descending Oakland Center
12:06PM 36.2708 -121.1742 313° West 370 426 25,600 -2,100 Descending Oakland Center
12:07PM 36.3383 -121.2631 313° West 355 409 23,600 -2,280 Descending Oakland Center
12:08PM 36.4175 -121.3653 314° West 342 394 21,000 -2,280 Descending Oakland Center
12:09PM 36.4825 -121.4461 315° West 331 381 19,000 -1,860 Descending Oakland Center
12:10PM 36.5658 -121.4769 343° North 313 360 17,300 -1,800 Descending Oakland Center
12:11PM 36.6506 -121.4919 352° North 307 353 15,400 -1,860 Descending Oakland Center
12:12PM 36.7317 -121.5072 351° North 296 341 13,500 -1,860 Descending Oakland Center
12:13PM 36.8092 -121.5206 352° North 284 327 11,600 -1,740 Descending Oakland Center
12:14PM 36.8944 -121.5386 350° North 269 310 10,000 -1,620 Descending Oakland Center
12:15PM 36.9583 -121.5803 332° Northwest 264 304 8,400 -1,620 Descending Oakland Center
12:16PM 37.0194 -121.6239 330° Northwest 254 292 6,700 -1,620 Descending Oakland Center
12:17PM 37.0794 -121.6714 328° Northwest 254 292 5,100 -900 Descending Oakland Center
12:18PM 37.1350 -121.7133 329° Northwest 244 281 4,900 -600 Descending Oakland Center
12:20PM 37.1836 -121.7481 330° Northwest 218 251 4,000 -960 Descending Oakland Center
12:21PM 37.2328 -121.7878 327° Northwest 211 243 3,000 -960 Descending Oakland Center
12:22PM 37.2747 -121.8311 321° Northwest 203 234 2,100 -840 Descending Oakland Center
12:23PM 37.3025 -121.8647 316° Northwest 163 188 1,300 -780 Descending Oakland Center
12:24PM 37.3328 -121.8983 319° Northwest 135 155 600 9,120 Descending Oakland Center
12:25PM 37.3594 -121.9256 321° Northwest 128 147 20,000 18,720 Climbing Oakland Center
12:27PM 37.3627 -121.9291 North  Level Estimated